sensor_id;sensor_type;location;lat;lon;timestamp;P1;durP1;ratioP1;P2;durP2;ratioP2
54897;SDS011;40800;52.704;6.398;2022-07-29T00:01:39;4.00;;;2.10;;
54897;SDS011;40800;52.704;6.398;2022-07-29T00:04:05;3.75;;;1.98;;
54897;SDS011;40800;52.704;6.398;2022-07-29T00:06:31;4.07;;;2.30;;
54897;SDS011;40800;52.704;6.398;2022-07-29T00:08:56;5.13;;;2.45;;
54897;SDS011;40800;52.704;6.398;2022-07-29T00:11:22;3.70;;;2.30;;
54897;SDS011;40800;52.704;6.398;2022-07-29T00:13:47;4.25;;;2.22;;
54897;SDS011;40800;52.704;6.398;2022-07-29T00:16:13;3.42;;;2.10;;
54897;SDS011;40800;52.704;6.398;2022-07-29T00:18:39;5.07;;;2.33;;
54897;SDS011;40800;52.704;6.398;2022-07-29T00:21:04;4.40;;;2.25;;
54897;SDS011;40800;52.704;6.398;2022-07-29T00:23:30;4.97;;;2.83;;
54897;SDS011;40800;52.704;6.398;2022-07-29T00:25:55;4.78;;;2.53;;
54897;SDS011;40800;52.704;6.398;2022-07-29T00:28:21;6.18;;;2.47;;
54897;SDS011;40800;52.704;6.398;2022-07-29T00:30:47;4.50;;;2.40;;
54897;SDS011;40800;52.704;6.398;2022-07-29T00:33:12;4.38;;;2.60;;
54897;SDS011;40800;52.704;6.398;2022-07-29T00:35:38;4.07;;;2.40;;
54897;SDS011;40800;52.704;6.398;2022-07-29T00:38:10;4.80;;;2.55;;
54897;SDS011;40800;52.704;6.398;2022-07-29T00:40:41;3.58;;;2.30;;
54897;SDS011;40800;52.704;6.398;2022-07-29T00:43:07;3.77;;;2.40;;
54897;SDS011;40800;52.704;6.398;2022-07-29T00:45:33;3.72;;;2.40;;
54897;SDS011;40800;52.704;6.398;2022-07-29T00:47:58;4.72;;;2.78;;
54897;SDS011;40800;52.704;6.398;2022-07-29T00:50:24;4.03;;;2.50;;
54897;SDS011;40800;52.704;6.398;2022-07-29T00:52:50;4.25;;;2.30;;
54897;SDS011;40800;52.704;6.398;2022-07-29T00:55:17;4.70;;;2.70;;
54897;SDS011;40800;52.704;6.398;2022-07-29T00:57:43;3.78;;;2.45;;
54897;SDS011;40800;52.704;6.398;2022-07-29T01:00:17;4.28;;;2.60;;
54897;SDS011;40800;52.704;6.398;2022-07-29T01:02:45;5.05;;;2.72;;
54897;SDS011;40800;52.704;6.398;2022-07-29T01:05:14;3.75;;;2.63;;
54897;SDS011;40800;52.704;6.398;2022-07-29T01:07:42;4.88;;;2.83;;
54897;SDS011;40800;52.704;6.398;2022-07-29T01:10:09;3.95;;;2.40;;
54897;SDS011;40800;52.704;6.398;2022-07-29T01:12:38;5.85;;;3.13;;
54897;SDS011;40800;52.704;6.398;2022-07-29T01:20:07;4.00;;;2.53;;
54897;SDS011;40800;52.704;6.398;2022-07-29T01:25:17;4.20;;;2.85;;
54897;SDS011;40800;52.704;6.398;2022-07-29T01:30:28;4.03;;;2.42;;
54897;SDS011;40800;52.704;6.398;2022-07-29T01:32:58;3.42;;;2.40;;
54897;SDS011;40800;52.704;6.398;2022-07-29T01:35:36;5.20;;;3.00;;
54897;SDS011;40800;52.704;6.398;2022-07-29T01:43:11;4.82;;;2.60;;
54897;SDS011;40800;52.704;6.398;2022-07-29T01:45:41;5.03;;;3.10;;
54897;SDS011;40800;52.704;6.398;2022-07-29T01:48:13;4.63;;;2.88;;
54897;SDS011;40800;52.704;6.398;2022-07-29T01:50:46;7.45;;;2.70;;
54897;SDS011;40800;52.704;6.398;2022-07-29T01:53:14;4.82;;;2.60;;
54897;SDS011;40800;52.704;6.398;2022-07-29T01:55:48;6.03;;;2.50;;
54897;SDS011;40800;52.704;6.398;2022-07-29T01:58:15;5.18;;;2.78;;
54897;SDS011;40800;52.704;6.398;2022-07-29T02:00:43;4.50;;;2.90;;
54897;SDS011;40800;52.704;6.398;2022-07-29T02:03:11;5.22;;;2.63;;
54897;SDS011;40800;52.704;6.398;2022-07-29T02:05:38;4.80;;;2.80;;
54897;SDS011;40800;52.704;6.398;2022-07-29T02:08:07;4.65;;;2.60;;
54897;SDS011;40800;52.704;6.398;2022-07-29T02:10:34;5.60;;;2.92;;
54897;SDS011;40800;52.704;6.398;2022-07-29T02:13:00;3.80;;;2.55;;
54897;SDS011;40800;52.704;6.398;2022-07-29T02:15:28;5.43;;;2.70;;
54897;SDS011;40800;52.704;6.398;2022-07-29T02:18:01;4.40;;;2.45;;
54897;SDS011;40800;52.704;6.398;2022-07-29T02:20:30;5.80;;;2.92;;
54897;SDS011;40800;52.704;6.398;2022-07-29T02:22:57;4.50;;;2.88;;
54897;SDS011;40800;52.704;6.398;2022-07-29T02:25:25;4.40;;;2.78;;
54897;SDS011;40800;52.704;6.398;2022-07-29T02:27:52;4.10;;;2.65;;
54897;SDS011;40800;52.704;6.398;2022-07-29T02:30:19;4.45;;;2.88;;
54897;SDS011;40800;52.704;6.398;2022-07-29T02:32:47;6.03;;;2.80;;
54897;SDS011;40800;52.704;6.398;2022-07-29T02:35:14;3.47;;;2.50;;
54897;SDS011;40800;52.704;6.398;2022-07-29T02:37:42;5.70;;;2.70;;
54897;SDS011;40800;52.704;6.398;2022-07-29T02:40:12;5.10;;;2.90;;
54897;SDS011;40800;52.704;6.398;2022-07-29T02:42:41;4.22;;;2.85;;
54897;SDS011;40800;52.704;6.398;2022-07-29T02:45:09;4.15;;;2.72;;
54897;SDS011;40800;52.704;6.398;2022-07-29T02:47:44;5.93;;;2.70;;
54897;SDS011;40800;52.704;6.398;2022-07-29T02:52:43;5.05;;;2.80;;
54897;SDS011;40800;52.704;6.398;2022-07-29T03:00:53;4.72;;;2.90;;
54897;SDS011;40800;52.704;6.398;2022-07-29T03:03:24;7.38;;;2.97;;
54897;SDS011;40800;52.704;6.398;2022-07-29T03:05:54;5.28;;;2.90;;
54897;SDS011;40800;52.704;6.398;2022-07-29T03:08:21;6.78;;;2.60;;
54897;SDS011;40800;52.704;6.398;2022-07-29T03:10:48;6.33;;;2.93;;
54897;SDS011;40800;52.704;6.398;2022-07-29T03:13:14;5.70;;;3.10;;
54897;SDS011;40800;52.704;6.398;2022-07-29T03:15:42;4.10;;;2.63;;
54897;SDS011;40800;52.704;6.398;2022-07-29T03:18:09;4.15;;;2.75;;
54897;SDS011;40800;52.704;6.398;2022-07-29T03:20:35;6.93;;;3.17;;
54897;SDS011;40800;52.704;6.398;2022-07-29T03:23:02;4.00;;;2.63;;
54897;SDS011;40800;52.704;6.398;2022-07-29T03:25:27;5.28;;;2.75;;
54897;SDS011;40800;52.704;6.398;2022-07-29T03:27:53;14.20;;;3.42;;
54897;SDS011;40800;52.704;6.398;2022-07-29T03:30:19;13.45;;;3.38;;
54897;SDS011;40800;52.704;6.398;2022-07-29T03:32:44;13.23;;;3.30;;
54897;SDS011;40800;52.704;6.398;2022-07-29T03:35:10;7.18;;;2.92;;
54897;SDS011;40800;52.704;6.398;2022-07-29T03:37:36;8.15;;;2.70;;
54897;SDS011;40800;52.704;6.398;2022-07-29T03:40:03;5.40;;;2.85;;
54897;SDS011;40800;52.704;6.398;2022-07-29T03:42:32;6.47;;;2.60;;
54897;SDS011;40800;52.704;6.398;2022-07-29T03:45:01;6.82;;;2.70;;
54897;SDS011;40800;52.704;6.398;2022-07-29T03:47:31;5.90;;;2.90;;
54897;SDS011;40800;52.704;6.398;2022-07-29T03:50:00;4.68;;;2.80;;
54897;SDS011;40800;52.704;6.398;2022-07-29T03:52:30;4.00;;;2.60;;
54897;SDS011;40800;52.704;6.398;2022-07-29T03:54:56;5.47;;;2.92;;
54897;SDS011;40800;52.704;6.398;2022-07-29T03:57:23;7.32;;;2.75;;
54897;SDS011;40800;52.704;6.398;2022-07-29T03:59:51;7.90;;;2.75;;
54897;SDS011;40800;52.704;6.398;2022-07-29T04:02:17;7.90;;;2.80;;
54897;SDS011;40800;52.704;6.398;2022-07-29T04:04:43;7.18;;;2.90;;
54897;SDS011;40800;52.704;6.398;2022-07-29T04:07:11;6.10;;;3.20;;
54897;SDS011;40800;52.704;6.398;2022-07-29T04:09:37;7.72;;;2.78;;
54897;SDS011;40800;52.704;6.398;2022-07-29T04:12:03;4.78;;;2.80;;
54897;SDS011;40800;52.704;6.398;2022-07-29T04:14:29;6.18;;;3.05;;
54897;SDS011;40800;52.704;6.398;2022-07-29T04:16:55;4.82;;;2.78;;
54897;SDS011;40800;52.704;6.398;2022-07-29T04:19:21;8.02;;;2.88;;
54897;SDS011;40800;52.704;6.398;2022-07-29T04:21:48;7.13;;;3.05;;
54897;SDS011;40800;52.704;6.398;2022-07-29T04:24:14;6.65;;;2.80;;
54897;SDS011;40800;52.704;6.398;2022-07-29T04:26:39;6.50;;;3.25;;
54897;SDS011;40800;52.704;6.398;2022-07-29T04:29:05;6.22;;;3.03;;
54897;SDS011;40800;52.704;6.398;2022-07-29T04:31:31;5.00;;;2.92;;
54897;SDS011;40800;52.704;6.398;2022-07-29T04:33:56;7.13;;;2.70;;
54897;SDS011;40800;52.704;6.398;2022-07-29T04:36:22;6.90;;;3.00;;
54897;SDS011;40800;52.704;6.398;2022-07-29T04:38:48;4.60;;;2.75;;
54897;SDS011;40800;52.704;6.398;2022-07-29T04:41:13;6.60;;;2.88;;
54897;SDS011;40800;52.704;6.398;2022-07-29T04:43:39;6.78;;;2.90;;
54897;SDS011;40800;52.704;6.398;2022-07-29T04:46:05;8.18;;;3.25;;
54897;SDS011;40800;52.704;6.398;2022-07-29T04:48:32;6.05;;;3.03;;
54897;SDS011;40800;52.704;6.398;2022-07-29T04:50:58;8.63;;;3.05;;
54897;SDS011;40800;52.704;6.398;2022-07-29T04:53:24;7.75;;;3.13;;
54897;SDS011;40800;52.704;6.398;2022-07-29T04:55:50;6.18;;;2.55;;
54897;SDS011;40800;52.704;6.398;2022-07-29T04:58:16;7.47;;;3.15;;
54897;SDS011;40800;52.704;6.398;2022-07-29T05:00:41;7.35;;;3.13;;
54897;SDS011;40800;52.704;6.398;2022-07-29T05:03:07;6.50;;;3.08;;
54897;SDS011;40800;52.704;6.398;2022-07-29T05:05:33;6.15;;;3.22;;
54897;SDS011;40800;52.704;6.398;2022-07-29T05:07:58;5.60;;;3.25;;
54897;SDS011;40800;52.704;6.398;2022-07-29T05:10:24;5.90;;;2.72;;
54897;SDS011;40800;52.704;6.398;2022-07-29T05:12:50;6.25;;;3.10;;
54897;SDS011;40800;52.704;6.398;2022-07-29T05:15:16;7.22;;;3.17;;
54897;SDS011;40800;52.704;6.398;2022-07-29T05:17:42;6.28;;;2.88;;
54897;SDS011;40800;52.704;6.398;2022-07-29T05:20:08;5.80;;;2.80;;
54897;SDS011;40800;52.704;6.398;2022-07-29T05:22:34;4.83;;;3.00;;
54897;SDS011;40800;52.704;6.398;2022-07-29T05:25:00;6.00;;;3.15;;
54897;SDS011;40800;52.704;6.398;2022-07-29T05:27:25;4.80;;;2.70;;
54897;SDS011;40800;52.704;6.398;2022-07-29T05:29:51;5.47;;;2.85;;
54897;SDS011;40800;52.704;6.398;2022-07-29T05:32:17;6.32;;;3.00;;
54897;SDS011;40800;52.704;6.398;2022-07-29T05:34:42;4.82;;;2.80;;
54897;SDS011;40800;52.704;6.398;2022-07-29T05:37:08;5.95;;;2.67;;
54897;SDS011;40800;52.704;6.398;2022-07-29T05:39:34;5.43;;;2.95;;
54897;SDS011;40800;52.704;6.398;2022-07-29T05:41:59;5.43;;;2.80;;
54897;SDS011;40800;52.704;6.398;2022-07-29T05:44:25;5.78;;;2.88;;
54897;SDS011;40800;52.704;6.398;2022-07-29T05:46:50;4.88;;;2.72;;
54897;SDS011;40800;52.704;6.398;2022-07-29T05:49:16;13.00;;;3.45;;
54897;SDS011;40800;52.704;6.398;2022-07-29T05:51:42;8.57;;;2.92;;
54897;SDS011;40800;52.704;6.398;2022-07-29T05:54:07;8.55;;;2.85;;
54897;SDS011;40800;52.704;6.398;2022-07-29T05:56:35;9.50;;;3.25;;
54897;SDS011;40800;52.704;6.398;2022-07-29T05:59:01;7.50;;;2.88;;
54897;SDS011;40800;52.704;6.398;2022-07-29T06:01:27;5.90;;;3.45;;
54897;SDS011;40800;52.704;6.398;2022-07-29T06:03:52;10.05;;;3.63;;
54897;SDS011;40800;52.704;6.398;2022-07-29T06:06:18;7.18;;;3.05;;
54897;SDS011;40800;52.704;6.398;2022-07-29T06:08:44;4.13;;;2.90;;
54897;SDS011;40800;52.704;6.398;2022-07-29T06:11:09;11.75;;;3.30;;
54897;SDS011;40800;52.704;6.398;2022-07-29T06:13:35;8.73;;;3.30;;
54897;SDS011;40800;52.704;6.398;2022-07-29T06:16:00;6.65;;;3.38;;
54897;SDS011;40800;52.704;6.398;2022-07-29T06:18:26;9.80;;;3.10;;
54897;SDS011;40800;52.704;6.398;2022-07-29T06:20:52;9.88;;;3.40;;
54897;SDS011;40800;52.704;6.398;2022-07-29T06:23:19;5.55;;;3.00;;
54897;SDS011;40800;52.704;6.398;2022-07-29T06:25:45;7.50;;;3.17;;
54897;SDS011;40800;52.704;6.398;2022-07-29T06:28:11;9.90;;;3.38;;
54897;SDS011;40800;52.704;6.398;2022-07-29T06:30:37;9.07;;;3.28;;
54897;SDS011;40800;52.704;6.398;2022-07-29T06:33:04;7.70;;;3.42;;
54897;SDS011;40800;52.704;6.398;2022-07-29T06:35:29;17.88;;;3.45;;
54897;SDS011;40800;52.704;6.398;2022-07-29T06:37:55;9.00;;;3.17;;
54897;SDS011;40800;52.704;6.398;2022-07-29T06:40:21;7.60;;;3.28;;
54897;SDS011;40800;52.704;6.398;2022-07-29T06:43:05;7.13;;;3.33;;
54897;SDS011;40800;52.704;6.398;2022-07-29T06:45:33;5.15;;;3.25;;
54897;SDS011;40800;52.704;6.398;2022-07-29T06:47:59;5.35;;;3.13;;
54897;SDS011;40800;52.704;6.398;2022-07-29T06:50:25;5.00;;;3.05;;
54897;SDS011;40800;52.704;6.398;2022-07-29T06:52:50;5.55;;;2.97;;
54897;SDS011;40800;52.704;6.398;2022-07-29T06:55:16;5.22;;;2.88;;
54897;SDS011;40800;52.704;6.398;2022-07-29T06:57:44;6.30;;;2.90;;
54897;SDS011;40800;52.704;6.398;2022-07-29T07:00:10;6.53;;;3.10;;
54897;SDS011;40800;52.704;6.398;2022-07-29T07:02:36;7.60;;;3.60;;
54897;SDS011;40800;52.704;6.398;2022-07-29T07:05:02;6.40;;;3.13;;
54897;SDS011;40800;52.704;6.398;2022-07-29T07:07:28;6.43;;;3.20;;
54897;SDS011;40800;52.704;6.398;2022-07-29T07:09:53;6.82;;;3.50;;
54897;SDS011;40800;52.704;6.398;2022-07-29T07:12:19;5.88;;;3.30;;
54897;SDS011;40800;52.704;6.398;2022-07-29T07:14:44;6.50;;;3.28;;
54897;SDS011;40800;52.704;6.398;2022-07-29T07:17:10;6.40;;;2.90;;
54897;SDS011;40800;52.704;6.398;2022-07-29T07:19:36;6.50;;;3.25;;
54897;SDS011;40800;52.704;6.398;2022-07-29T07:22:01;5.13;;;2.83;;
54897;SDS011;40800;52.704;6.398;2022-07-29T07:24:27;6.75;;;3.05;;
54897;SDS011;40800;52.704;6.398;2022-07-29T07:26:53;6.05;;;3.10;;
54897;SDS011;40800;52.704;6.398;2022-07-29T07:29:18;8.00;;;3.40;;
54897;SDS011;40800;52.704;6.398;2022-07-29T07:31:44;6.03;;;2.97;;
54897;SDS011;40800;52.704;6.398;2022-07-29T07:34:10;6.23;;;3.00;;
54897;SDS011;40800;52.704;6.398;2022-07-29T07:36:36;4.15;;;3.00;;
54897;SDS011;40800;52.704;6.398;2022-07-29T07:39:02;5.80;;;3.20;;
54897;SDS011;40800;52.704;6.398;2022-07-29T07:41:28;6.07;;;3.25;;
54897;SDS011;40800;52.704;6.398;2022-07-29T07:43:54;5.55;;;3.00;;
54897;SDS011;40800;52.704;6.398;2022-07-29T07:46:19;6.53;;;2.75;;
54897;SDS011;40800;52.704;6.398;2022-07-29T07:48:45;7.95;;;3.33;;
54897;SDS011;40800;52.704;6.398;2022-07-29T07:51:11;5.03;;;3.10;;
54897;SDS011;40800;52.704;6.398;2022-07-29T07:53:36;5.20;;;3.22;;
54897;SDS011;40800;52.704;6.398;2022-07-29T07:56:02;6.47;;;3.20;;
54897;SDS011;40800;52.704;6.398;2022-07-29T07:58:29;5.10;;;3.10;;
54897;SDS011;40800;52.704;6.398;2022-07-29T08:00:54;4.68;;;2.92;;
54897;SDS011;40800;52.704;6.398;2022-07-29T08:03:20;8.57;;;3.40;;
54897;SDS011;40800;52.704;6.398;2022-07-29T08:05:47;5.57;;;3.40;;
54897;SDS011;40800;52.704;6.398;2022-07-29T08:08:13;5.80;;;3.53;;
54897;SDS011;40800;52.704;6.398;2022-07-29T08:10:38;5.72;;;3.42;;
54897;SDS011;40800;52.704;6.398;2022-07-29T08:13:24;7.15;;;3.30;;
54897;SDS011;40800;52.704;6.398;2022-07-29T08:15:52;5.80;;;3.60;;
54897;SDS011;40800;52.704;6.398;2022-07-29T08:18:28;5.53;;;3.33;;
54897;SDS011;40800;52.704;6.398;2022-07-29T08:20:55;6.25;;;3.38;;
54897;SDS011;40800;52.704;6.398;2022-07-29T08:23:22;6.77;;;3.60;;
54897;SDS011;40800;52.704;6.398;2022-07-29T08:25:48;6.75;;;3.55;;
54897;SDS011;40800;52.704;6.398;2022-07-29T08:28:14;8.32;;;3.50;;
54897;SDS011;40800;52.704;6.398;2022-07-29T08:30:40;5.07;;;3.42;;
54897;SDS011;40800;52.704;6.398;2022-07-29T08:33:06;7.80;;;3.35;;
54897;SDS011;40800;52.704;6.398;2022-07-29T08:35:32;5.90;;;3.80;;
54897;SDS011;40800;52.704;6.398;2022-07-29T08:37:57;6.55;;;3.30;;
54897;SDS011;40800;52.704;6.398;2022-07-29T08:40:23;6.95;;;3.50;;
54897;SDS011;40800;52.704;6.398;2022-07-29T08:42:50;7.50;;;3.60;;
54897;SDS011;40800;52.704;6.398;2022-07-29T08:45:16;6.28;;;3.92;;
54897;SDS011;40800;52.704;6.398;2022-07-29T08:47:43;5.87;;;3.63;;
54897;SDS011;40800;52.704;6.398;2022-07-29T08:50:10;5.88;;;3.40;;
54897;SDS011;40800;52.704;6.398;2022-07-29T08:52:38;6.05;;;3.58;;
54897;SDS011;40800;52.704;6.398;2022-07-29T08:55:06;6.90;;;3.35;;
54897;SDS011;40800;52.704;6.398;2022-07-29T08:57:34;6.90;;;3.97;;
54897;SDS011;40800;52.704;6.398;2022-07-29T09:00:00;6.13;;;3.30;;
54897;SDS011;40800;52.704;6.398;2022-07-29T09:02:32;6.38;;;3.38;;
54897;SDS011;40800;52.704;6.398;2022-07-29T09:05:04;7.95;;;3.45;;
54897;SDS011;40800;52.704;6.398;2022-07-29T09:07:31;7.28;;;3.88;;
54897;SDS011;40800;52.704;6.398;2022-07-29T09:09:57;7.75;;;2.88;;
54897;SDS011;40800;52.704;6.398;2022-07-29T09:12:24;6.18;;;3.22;;
54897;SDS011;40800;52.704;6.398;2022-07-29T09:14:50;10.73;;;3.80;;
54897;SDS011;40800;52.704;6.398;2022-07-29T09:17:16;5.85;;;3.17;;
54897;SDS011;40800;52.704;6.398;2022-07-29T09:19:42;6.80;;;3.28;;
54897;SDS011;40800;52.704;6.398;2022-07-29T09:22:08;4.95;;;2.90;;
54897;SDS011;40800;52.704;6.398;2022-07-29T09:29:42;6.55;;;3.13;;
54897;SDS011;40800;52.704;6.398;2022-07-29T09:32:08;6.45;;;3.13;;
54897;SDS011;40800;52.704;6.398;2022-07-29T09:34:35;5.55;;;3.10;;
54897;SDS011;40800;52.704;6.398;2022-07-29T09:37:01;10.60;;;3.35;;
54897;SDS011;40800;52.704;6.398;2022-07-29T09:39:28;6.85;;;3.50;;
54897;SDS011;40800;52.704;6.398;2022-07-29T09:41:58;5.47;;;3.40;;
54897;SDS011;40800;52.704;6.398;2022-07-29T09:44:25;5.70;;;3.50;;
54897;SDS011;40800;52.704;6.398;2022-07-29T09:49:35;5.20;;;3.10;;
54897;SDS011;40800;52.704;6.398;2022-07-29T09:52:15;6.53;;;3.80;;
54897;SDS011;40800;52.704;6.398;2022-07-29T09:54:41;5.25;;;3.33;;
54897;SDS011;40800;52.704;6.398;2022-07-29T09:57:21;6.03;;;3.42;;
54897;SDS011;40800;52.704;6.398;2022-07-29T10:00:21;6.65;;;3.80;;
54897;SDS011;40800;52.704;6.398;2022-07-29T10:02:43;8.55;;;3.40;;
54897;SDS011;40800;52.704;6.398;2022-07-29T10:07:49;5.85;;;3.25;;
54897;SDS011;40800;52.704;6.398;2022-07-29T10:12:58;5.00;;;3.13;;
54897;SDS011;40800;52.704;6.398;2022-07-29T10:15:26;8.05;;;3.50;;
54897;SDS011;40800;52.704;6.398;2022-07-29T10:17:55;6.93;;;3.55;;
54897;SDS011;40800;52.704;6.398;2022-07-29T10:20:21;5.10;;;3.10;;
54897;SDS011;40800;52.704;6.398;2022-07-29T10:22:48;6.28;;;3.08;;
54897;SDS011;40800;52.704;6.398;2022-07-29T10:25:15;7.10;;;3.40;;
54897;SDS011;40800;52.704;6.398;2022-07-29T10:27:42;7.32;;;3.22;;
54897;SDS011;40800;52.704;6.398;2022-07-29T10:30:09;5.60;;;3.83;;
54897;SDS011;40800;52.704;6.398;2022-07-29T10:32:39;9.75;;;3.92;;
54897;SDS011;40800;52.704;6.398;2022-07-29T10:35:26;6.53;;;3.28;;
54897;SDS011;40800;52.704;6.398;2022-07-29T10:41:06;7.13;;;3.08;;
54897;SDS011;40800;52.704;6.398;2022-07-29T10:43:59;6.15;;;3.70;;
54897;SDS011;40800;52.704;6.398;2022-07-29T10:46:27;6.47;;;3.65;;
54897;SDS011;40800;52.704;6.398;2022-07-29T10:49:06;13.10;;;3.55;;
54897;SDS011;40800;52.704;6.398;2022-07-29T11:05:11;5.45;;;3.63;;
54897;SDS011;40800;52.704;6.398;2022-07-29T11:07:39;6.43;;;3.35;;
54897;SDS011;40800;52.704;6.398;2022-07-29T11:10:25;5.63;;;3.58;;
54897;SDS011;40800;52.704;6.398;2022-07-29T11:12:50;6.20;;;3.60;;
54897;SDS011;40800;52.704;6.398;2022-07-29T11:15:18;5.82;;;3.55;;
54897;SDS011;40800;52.704;6.398;2022-07-29T11:20:36;5.45;;;3.53;;
54897;SDS011;40800;52.704;6.398;2022-07-29T11:23:16;6.95;;;3.45;;
54897;SDS011;40800;52.704;6.398;2022-07-29T11:25:44;7.13;;;3.72;;
54897;SDS011;40800;52.704;6.398;2022-07-29T11:28:13;6.05;;;3.60;;
54897;SDS011;40800;52.704;6.398;2022-07-29T11:30:47;8.00;;;3.65;;
54897;SDS011;40800;52.704;6.398;2022-07-29T11:33:29;7.72;;;4.13;;
54897;SDS011;40800;52.704;6.398;2022-07-29T11:36:12;8.20;;;3.95;;
54897;SDS011;40800;52.704;6.398;2022-07-29T11:38:39;5.18;;;3.60;;
54897;SDS011;40800;52.704;6.398;2022-07-29T11:43:57;8.40;;;3.40;;
54897;SDS011;40800;52.704;6.398;2022-07-29T11:49:11;5.68;;;3.38;;
54897;SDS011;40800;52.704;6.398;2022-07-29T11:51:37;7.33;;;3.70;;
54897;SDS011;40800;52.704;6.398;2022-07-29T11:54:03;6.17;;;3.40;;
54897;SDS011;40800;52.704;6.398;2022-07-29T11:56:33;7.13;;;3.53;;
54897;SDS011;40800;52.704;6.398;2022-07-29T11:59:06;8.75;;;4.22;;
54897;SDS011;40800;52.704;6.398;2022-07-29T12:01:34;7.85;;;3.50;;
54897;SDS011;40800;52.704;6.398;2022-07-29T12:04:06;9.80;;;3.67;;
54897;SDS011;40800;52.704;6.398;2022-07-29T12:06:33;7.00;;;3.80;;
54897;SDS011;40800;52.704;6.398;2022-07-29T12:11:25;7.18;;;3.63;;
54897;SDS011;40800;52.704;6.398;2022-07-29T12:13:52;9.53;;;3.77;;
54897;SDS011;40800;52.704;6.398;2022-07-29T12:16:18;8.20;;;3.50;;
54897;SDS011;40800;52.704;6.398;2022-07-29T12:18:55;7.10;;;3.70;;
54897;SDS011;40800;52.704;6.398;2022-07-29T12:21:24;5.35;;;3.30;;
54897;SDS011;40800;52.704;6.398;2022-07-29T12:23:54;7.18;;;3.63;;
54897;SDS011;40800;52.704;6.398;2022-07-29T12:26:20;7.30;;;4.30;;
54897;SDS011;40800;52.704;6.398;2022-07-29T12:28:46;7.00;;;3.63;;
54897;SDS011;40800;52.704;6.398;2022-07-29T12:31:15;8.40;;;3.90;;
54897;SDS011;40800;52.704;6.398;2022-07-29T12:33:41;6.22;;;3.80;;
54897;SDS011;40800;52.704;6.398;2022-07-29T12:36:07;12.33;;;3.83;;
54897;SDS011;40800;52.704;6.398;2022-07-29T12:38:36;12.73;;;4.10;;
54897;SDS011;40800;52.704;6.398;2022-07-29T12:41:05;7.25;;;3.75;;
54897;SDS011;40800;52.704;6.398;2022-07-29T12:43:31;6.18;;;3.78;;
54897;SDS011;40800;52.704;6.398;2022-07-29T12:45:57;9.20;;;4.00;;
54897;SDS011;40800;52.704;6.398;2022-07-29T12:48:36;7.28;;;3.75;;
54897;SDS011;40800;52.704;6.398;2022-07-29T12:51:03;8.55;;;4.60;;
54897;SDS011;40800;52.704;6.398;2022-07-29T12:53:31;6.63;;;3.63;;
54897;SDS011;40800;52.704;6.398;2022-07-29T12:55:57;7.60;;;3.92;;
54897;SDS011;40800;52.704;6.398;2022-07-29T13:01:06;6.95;;;3.88;;
54897;SDS011;40800;52.704;6.398;2022-07-29T13:11:48;8.48;;;3.25;;
54897;SDS011;40800;52.704;6.398;2022-07-29T13:17:01;12.30;;;3.60;;
54897;SDS011;40800;52.704;6.398;2022-07-29T13:22:12;10.07;;;3.67;;
54897;SDS011;40800;52.704;6.398;2022-07-29T13:24:49;8.10;;;3.60;;
54897;SDS011;40800;52.704;6.398;2022-07-29T13:27:17;9.13;;;3.30;;
54897;SDS011;40800;52.704;6.398;2022-07-29T13:29:43;5.50;;;2.88;;
54897;SDS011;40800;52.704;6.398;2022-07-29T13:32:10;9.80;;;3.25;;
54897;SDS011;40800;52.704;6.398;2022-07-29T13:37:02;7.68;;;3.35;;
54897;SDS011;40800;52.704;6.398;2022-07-29T13:39:28;6.73;;;3.43;;
54897;SDS011;40800;52.704;6.398;2022-07-29T13:41:53;6.77;;;3.13;;
54897;SDS011;40800;52.704;6.398;2022-07-29T13:44:19;6.33;;;3.03;;
54897;SDS011;40800;52.704;6.398;2022-07-29T13:46:45;8.57;;;3.40;;
54897;SDS011;40800;52.704;6.398;2022-07-29T13:49:10;5.50;;;2.47;;
54897;SDS011;40800;52.704;6.398;2022-07-29T13:51:36;5.63;;;2.43;;
54897;SDS011;40800;52.704;6.398;2022-07-29T13:54:03;4.22;;;2.72;;
54897;SDS011;40800;52.704;6.398;2022-07-29T13:56:28;6.35;;;2.95;;
54897;SDS011;40800;52.704;6.398;2022-07-29T13:58:54;11.77;;;3.17;;
54897;SDS011;40800;52.704;6.398;2022-07-29T14:01:20;7.97;;;2.70;;
54897;SDS011;40800;52.704;6.398;2022-07-29T14:03:46;6.80;;;2.57;;
54897;SDS011;40800;52.704;6.398;2022-07-29T14:06:11;7.10;;;2.30;;
54897;SDS011;40800;52.704;6.398;2022-07-29T14:08:37;9.67;;;2.77;;
54897;SDS011;40800;52.704;6.398;2022-07-29T14:11:03;8.80;;;2.80;;
54897;SDS011;40800;52.704;6.398;2022-07-29T14:13:29;16.08;;;3.40;;
54897;SDS011;40800;52.704;6.398;2022-07-29T14:15:55;6.97;;;2.60;;
54897;SDS011;40800;52.704;6.398;2022-07-29T14:18:21;5.27;;;2.50;;
54897;SDS011;40800;52.704;6.398;2022-07-29T14:20:46;5.57;;;2.47;;
54897;SDS011;40800;52.704;6.398;2022-07-29T14:23:12;4.93;;;2.27;;
54897;SDS011;40800;52.704;6.398;2022-07-29T14:25:37;11.53;;;2.93;;
54897;SDS011;40800;52.704;6.398;2022-07-29T14:28:03;6.53;;;2.40;;
54897;SDS011;40800;52.704;6.398;2022-07-29T14:30:29;5.53;;;2.87;;
54897;SDS011;40800;52.704;6.398;2022-07-29T14:32:55;6.73;;;2.63;;
54897;SDS011;40800;52.704;6.398;2022-07-29T14:35:20;5.13;;;2.40;;
54897;SDS011;40800;52.704;6.398;2022-07-29T14:37:46;7.37;;;2.97;;
54897;SDS011;40800;52.704;6.398;2022-07-29T14:40:11;6.33;;;2.53;;
54897;SDS011;40800;52.704;6.398;2022-07-29T14:42:37;6.83;;;2.37;;
54897;SDS011;40800;52.704;6.398;2022-07-29T14:45:04;6.70;;;2.47;;
54897;SDS011;40800;52.704;6.398;2022-07-29T14:47:31;8.13;;;3.28;;
54897;SDS011;40800;52.704;6.398;2022-07-29T14:49:57;6.77;;;2.60;;
54897;SDS011;40800;52.704;6.398;2022-07-29T14:52:22;8.07;;;2.93;;
54897;SDS011;40800;52.704;6.398;2022-07-29T14:54:48;10.10;;;2.37;;
54897;SDS011;40800;52.704;6.398;2022-07-29T14:57:14;11.63;;;2.97;;
54897;SDS011;40800;52.704;6.398;2022-07-29T14:59:39;15.70;;;3.40;;
54897;SDS011;40800;52.704;6.398;2022-07-29T15:02:05;13.73;;;2.83;;
54897;SDS011;40800;52.704;6.398;2022-07-29T15:04:30;13.47;;;2.80;;
54897;SDS011;40800;52.704;6.398;2022-07-29T15:06:56;8.03;;;2.73;;
54897;SDS011;40800;52.704;6.398;2022-07-29T15:09:23;8.23;;;2.70;;
54897;SDS011;40800;52.704;6.398;2022-07-29T15:11:48;29.48;;;3.90;;
54897;SDS011;40800;52.704;6.398;2022-07-29T15:14:14;9.60;;;2.87;;
54897;SDS011;40800;52.704;6.398;2022-07-29T15:16:39;13.50;;;2.93;;
54897;SDS011;40800;52.704;6.398;2022-07-29T15:19:07;8.95;;;3.30;;
54897;SDS011;40800;52.704;6.398;2022-07-29T15:21:33;8.32;;;2.83;;
54897;SDS011;40800;52.704;6.398;2022-07-29T15:23:59;13.33;;;3.07;;
54897;SDS011;40800;52.704;6.398;2022-07-29T15:26:25;21.03;;;3.50;;
54897;SDS011;40800;52.704;6.398;2022-07-29T15:28:51;16.15;;;3.67;;
54897;SDS011;40800;52.704;6.398;2022-07-29T15:31:16;9.32;;;2.60;;
54897;SDS011;40800;52.704;6.398;2022-07-29T15:33:43;7.13;;;2.90;;
54897;SDS011;40800;52.704;6.398;2022-07-29T15:36:09;9.53;;;3.07;;
54897;SDS011;40800;52.704;6.398;2022-07-29T15:38:37;5.40;;;2.50;;
54897;SDS011;40800;52.704;6.398;2022-07-29T15:41:03;8.25;;;2.75;;
54897;SDS011;40800;52.704;6.398;2022-07-29T15:43:28;6.53;;;2.90;;
54897;SDS011;40800;52.704;6.398;2022-07-29T15:45:54;6.20;;;2.60;;
54897;SDS011;40800;52.704;6.398;2022-07-29T15:48:38;5.75;;;2.63;;
54897;SDS011;40800;52.704;6.398;2022-07-29T15:51:04;6.00;;;3.17;;
54897;SDS011;40800;52.704;6.398;2022-07-29T15:53:29;5.80;;;2.60;;
54897;SDS011;40800;52.704;6.398;2022-07-29T15:55:55;5.13;;;2.60;;
54897;SDS011;40800;52.704;6.398;2022-07-29T15:58:20;7.20;;;3.00;;
54897;SDS011;40800;52.704;6.398;2022-07-29T16:00:46;18.13;;;3.30;;
54897;SDS011;40800;52.704;6.398;2022-07-29T16:03:12;8.47;;;3.10;;
54897;SDS011;40800;52.704;6.398;2022-07-29T16:05:38;10.48;;;3.40;;
54897;SDS011;40800;52.704;6.398;2022-07-29T16:08:04;10.52;;;2.78;;
54897;SDS011;40800;52.704;6.398;2022-07-29T16:10:30;13.57;;;3.60;;